PAKK

Details ICAO PAKK (KKA)
Name Koyuk ALFRED ADAMS
Region USA (Alaska)
Timezone America/Anchorage (UTC-9.0)
Plans Departing 1
Arriving 9
Stats Elevation 154 ft / 47 m (AMSL)
Location 64.939069° -161.154738°
Runways 1
Magnetic Variation 12.087° E
Sunrise 2017-12-16 20:51:04 UTC / 2017-12-16 11:51:04 Local
Sunset 2017-12-17 00:32:38 UTC / 2017-12-16 15:32:38 Local
Advertisement - Login to hide

Runways

ID Width Length Bearing (true) Bearing (mag) Surface Threshold Offset Overrun Length
01 59 ft / 18 m 3,003 ft / 915 m 23.94° 11.85° Gravel 0 ft / 0 m 0 ft / 0 m
19 59 ft / 18 m 3,003 ft / 915 m 203.95° 191.86° Gravel 0 ft / 0 m 200 ft / 61 m

Map

Weather


0- 5 10 15 20 25 30 35+ Temperature / ° C

Clouds and Precipitation
Forecast for 2017-12-16 12:00 UTC. Updated 23 minutes ago

Ground ~20,000 ft ~40,000 ft Winds

METAR

PAKK 161056Z AUTO 02007KT 9SM -SN SCT039 OVC048 M02/M04 A2903 RMK AO2 SLP843 P0000 T10171044 FZRANO

TAF

Not found

Frequencies

Recorded 134.95 MHz AWOS-3
Unicom 122.35 MHz FSS Nome
Unicom 122.80 MHz CTAF
Approach 135.70 MHz Anchorage ARTCC
Warning: Do not use this data for real-world aviation or navigation. No guarantee of current accuracy is given.